createdAt,value
2018-09-17T00:01:00.799Z,18.80
2018-09-17T00:03:29.326Z,18.76
2018-09-17T00:05:57.805Z,18.73
2018-09-17T00:08:26.248Z,18.71
2018-09-17T00:10:54.856Z,18.70
2018-09-17T00:13:23.327Z,18.68
2018-09-17T00:15:51.826Z,18.66
2018-09-17T00:18:20.269Z,18.64
2018-09-17T00:20:48.772Z,18.62
2018-09-17T00:23:17.211Z,18.60
2018-09-17T00:25:45.773Z,18.57
2018-09-17T00:28:14.322Z,18.55
2018-09-17T00:30:42.858Z,18.55
2018-09-17T00:33:11.365Z,18.53
2018-09-17T00:35:39.878Z,18.49
2018-09-17T00:38:08.362Z,18.47
2018-09-17T00:40:36.830Z,18.39
2018-09-17T00:43:05.340Z,18.35
2018-09-17T00:45:33.853Z,18.31
2018-09-17T00:48:02.374Z,18.30
2018-09-17T00:50:30.873Z,18.28
2018-09-17T00:52:59.311Z,18.27
2018-09-17T00:55:27.778Z,17.25
2018-09-17T00:57:56.326Z,18.20
2018-09-17T01:00:24.870Z,18.18
2018-09-17T01:05:37.493Z,18.15
2018-09-17T01:08:06.027Z,18.12
2018-09-17T01:10:34.606Z,18.09
2018-09-17T01:13:03.105Z,18.04
2018-09-17T01:15:31.568Z,17.98
2018-09-17T01:18:00.160Z,17.94
2018-09-17T01:20:28.710Z,17.93
2018-09-17T01:22:57.263Z,17.93
2018-09-17T01:25:25.741Z,17.91
2018-09-17T01:27:54.290Z,17.90
2018-09-17T01:30:22.793Z,17.90
2018-09-17T01:32:51.375Z,17.87
2018-09-17T01:35:19.875Z,17.84
2018-09-17T01:37:48.440Z,17.82
2018-09-17T01:40:16.921Z,17.78
2018-09-17T01:42:45.560Z,17.76
2018-09-17T01:45:14.115Z,17.74
2018-09-17T01:47:42.667Z,17.74
2018-09-17T01:50:11.176Z,17.70
2018-09-17T01:52:39.734Z,17.68
2018-09-17T01:55:08.435Z,17.67
2018-09-17T01:57:36.959Z,17.64
2018-09-17T02:00:05.544Z,17.60
2018-09-17T02:02:34.113Z,17.56
2018-09-17T02:05:02.584Z,17.55
2018-09-17T02:07:31.164Z,17.52
2018-09-17T02:09:59.731Z,17.49
2018-09-17T02:12:28.199Z,17.46
2018-09-17T02:14:56.762Z,17.43
2018-09-17T02:17:25.302Z,17.40
2018-09-17T02:19:53.831Z,17.38
2018-09-17T02:22:22.356Z,17.35
2018-09-17T02:24:50.856Z,17.31
2018-09-17T02:27:19.404Z,17.27
2018-09-17T02:29:47.877Z,17.23
2018-09-17T02:32:16.402Z,17.20
2018-09-17T02:34:44.841Z,17.17
2018-09-17T02:37:13.334Z,17.14
2018-09-17T02:39:41.862Z,17.11
2018-09-17T02:42:10.400Z,17.09
2018-09-17T02:44:38.918Z,17.08
2018-09-17T02:47:07.433Z,17.05
2018-09-17T02:49:36.044Z,17.04
2018-09-17T02:52:04.469Z,17.03
2018-09-17T02:54:32.969Z,16.98
2018-09-17T02:57:01.443Z,16.93
2018-09-17T02:59:29.981Z,16.90
2018-09-17T03:01:58.704Z,16.87
2018-09-17T03:04:27.294Z,16.85
2018-09-17T03:06:55.877Z,16.84
2018-09-17T03:09:24.385Z,16.87
2018-09-17T03:11:52.871Z,16.87
2018-09-17T03:14:27.658Z,16.85
2018-09-17T03:17:05.624Z,16.83
2018-09-17T03:19:34.150Z,16.83
2018-09-17T03:22:02.623Z,16.79
2018-09-17T03:24:31.131Z,16.78
2018-09-17T03:26:59.633Z,16.76
2018-09-17T03:29:28.191Z,16.75
2018-09-17T03:31:56.703Z,16.74
2018-09-17T03:34:25.311Z,16.74
2018-09-17T03:36:53.879Z,16.72
2018-09-17T03:39:22.354Z,16.70
2018-09-17T03:41:50.910Z,16.68
2018-09-17T03:44:19.544Z,16.67
2018-09-17T03:46:48.151Z,16.68
2018-09-17T03:49:16.664Z,16.67
2018-09-17T03:51:45.146Z,16.65
2018-09-17T03:54:13.675Z,16.64
2018-09-17T03:56:42.176Z,16.62
2018-09-17T03:59:11.723Z,16.63
2018-09-17T04:01:40.355Z,16.63
2018-09-17T04:04:08.820Z,16.62
2018-09-17T04:06:37.348Z,16.61
2018-09-17T04:09:07.480Z,16.57
2018-09-17T04:11:36.073Z,16.55
2018-09-17T04:14:04.770Z,16.53
2018-09-17T04:16:33.337Z,16.51
2018-09-17T04:19:01.968Z,16.50
2018-09-17T04:21:30.671Z,16.50
2018-09-17T04:23:59.238Z,16.49
2018-09-17T04:26:27.886Z,16.49
2018-09-17T04:28:56.519Z,16.49
2018-09-17T04:31:25.158Z,16.50
2018-09-17T04:33:53.675Z,16.49
2018-09-17T04:36:22.516Z,16.47
2018-09-17T04:38:51.168Z,16.46
2018-09-17T04:41:19.781Z,16.45
2018-09-17T04:43:48.310Z,16.42
2018-09-17T04:46:16.889Z,16.41
2018-09-17T04:48:45.479Z,16.40
2018-09-17T04:51:14.202Z,16.39
2018-09-17T04:53:42.838Z,16.38
2018-09-17T04:56:11.459Z,16.37
2018-09-17T04:58:40.079Z,16.35
2018-09-17T05:01:08.676Z,16.34
2018-09-17T05:03:37.437Z,16.33
2018-09-17T05:06:06.189Z,16.33
2018-09-17T05:08:34.856Z,16.30
2018-09-17T05:11:03.472Z,16.27
2018-09-17T05:13:32.169Z,16.23
2018-09-17T05:16:00.730Z,16.21
2018-09-17T05:18:29.381Z,16.22
2018-09-17T05:20:58.020Z,16.24
2018-09-17T05:23:26.661Z,16.26
2018-09-17T05:25:55.176Z,16.27
2018-09-17T05:28:23.716Z,16.30
2018-09-17T05:30:52.201Z,16.32
2018-09-17T05:33:20.815Z,16.33
2018-09-17T05:35:49.556Z,16.36
2018-09-17T05:38:18.143Z,16.37
2018-09-17T05:40:46.871Z,16.41
2018-09-17T05:43:15.487Z,16.46
2018-09-17T05:45:44.103Z,16.51
2018-09-17T05:48:13.058Z,16.56
2018-09-17T05:50:41.819Z,16.61
2018-09-17T05:53:10.461Z,16.68
2018-09-17T05:55:39.158Z,16.72
2018-09-17T05:58:07.769Z,16.79
2018-09-17T06:00:36.473Z,16.82
2018-09-17T06:03:05.189Z,16.87
2018-09-17T06:05:33.882Z,16.97
2018-09-17T06:08:02.787Z,17.07
2018-09-17T06:10:31.461Z,17.21
2018-09-17T06:13:00.042Z,17.41
2018-09-17T06:15:28.619Z,17.59
2018-09-17T06:17:57.258Z,17.80
2018-09-17T06:20:25.923Z,18.07
2018-09-17T06:22:54.559Z,18.39
2018-09-17T06:25:23.153Z,18.82
2018-09-17T06:27:51.961Z,19.27
2018-09-17T06:30:21.429Z,19.74
2018-09-17T06:32:57.105Z,20.28
2018-09-17T06:35:33.007Z,20.79
2018-09-17T06:38:02.555Z,21.26
2018-09-17T06:40:34.453Z,21.64
2018-09-17T06:43:03.487Z,22.03
2018-09-17T06:45:32.513Z,22.38
2018-09-17T06:48:01.318Z,22.83
2018-09-17T06:50:30.106Z,23.32
2018-09-17T06:52:58.930Z,23.78
2018-09-17T06:55:27.564Z,24.20
2018-09-17T06:57:56.361Z,24.04
2018-09-17T07:00:25.101Z,25.04
2018-09-17T07:02:53.671Z,25.46
2018-09-17T07:05:22.220Z,25.85
2018-09-17T07:07:50.877Z,26.37
2018-09-17T07:10:19.379Z,26.83
2018-09-17T07:12:48.181Z,27.21
2018-09-17T07:15:16.976Z,27.50
2018-09-17T07:17:45.664Z,27.83
2018-09-17T07:20:14.335Z,28.16
2018-09-17T07:22:43.040Z,28.40
2018-09-17T07:25:11.592Z,28.73
2018-09-17T07:27:40.101Z,29.09
2018-09-17T07:30:08.717Z,29.31
2018-09-17T07:32:37.435Z,29.46
2018-09-17T07:35:06.249Z,29.59
2018-09-17T07:37:34.850Z,29.73
2018-09-17T07:40:03.511Z,29.91
2018-09-17T07:42:46.299Z,30.21
2018-09-17T07:45:15.402Z,30.63
2018-09-17T07:47:44.125Z,31.02
2018-09-17T07:50:12.807Z,31.49
2018-09-17T07:52:41.617Z,31.99
2018-09-17T07:55:10.390Z,32.45
2018-09-17T07:57:39.037Z,32.86
2018-09-17T08:00:07.662Z,33.23
2018-09-17T08:02:36.666Z,33.71
2018-09-17T08:05:05.249Z,34.19
2018-09-17T08:07:33.883Z,34.60
2018-09-17T08:10:02.674Z,34.81
2018-09-17T08:12:31.241Z,35.02
2018-09-17T08:15:00.087Z,35.34
2018-09-17T08:17:28.960Z,35.68
2018-09-17T08:19:57.612Z,36.01
2018-09-17T08:22:28.615Z,36.46
2018-09-17T08:24:57.187Z,36.94
2018-09-17T08:27:25.704Z,37.39
2018-09-17T08:29:54.630Z,37.87
2018-09-17T11:56:16.321Z,50.60
2018-09-17T11:58:45.016Z,49.95
2018-09-17T12:01:18.797Z,48.34
2018-09-17T12:03:52.394Z,46.68
2018-09-17T12:08:27.306Z,45.37
2018-09-17T12:10:56.052Z,43.28
2018-09-17T12:13:24.590Z,42.08
2018-09-17T12:15:53.113Z,41.08
2018-09-17T12:18:21.575Z,40.31
2018-09-17T12:20:50.126Z,39.50
2018-09-17T12:23:18.667Z,38.92
2018-09-17T12:25:47.132Z,38.38
2018-09-17T12:28:15.773Z,37.85
2018-09-17T12:30:44.333Z,37.31
2018-09-17T12:33:13.050Z,36.95
2018-09-17T12:35:41.574Z,36.76
2018-09-17T12:38:10.053Z,36.70
2018-09-17T12:40:38.494Z,36.60
2018-09-17T12:43:07.048Z,36.54
2018-09-17T12:45:35.597Z,36.33
2018-09-17T12:48:04.091Z,36.11
2018-09-17T12:50:32.574Z,35.92
2018-09-17T12:53:01.113Z,35.61
2018-09-17T12:55:29.613Z,35.48
2018-09-17T12:57:58.112Z,35.39
2018-09-17T13:00:26.531Z,35.33
2018-09-17T13:02:55.117Z,35.27
2018-09-17T13:05:23.673Z,34.99
2018-09-17T13:07:52.190Z,34.75
2018-09-17T13:10:20.659Z,34.49
2018-09-17T13:12:49.138Z,34.23
2018-09-17T13:15:17.610Z,34.10
2018-09-17T13:17:46.144Z,33.99
2018-09-17T13:20:14.706Z,33.86
2018-09-17T13:22:43.265Z,33.71
2018-09-17T13:25:11.782Z,33.57
2018-09-17T13:27:40.337Z,33.49
2018-09-17T13:30:08.840Z,33.43
2018-09-17T13:32:37.403Z,33.46
2018-09-17T13:35:06.447Z,33.31
2018-09-17T13:37:34.933Z,33.42
2018-09-17T13:40:03.388Z,33.41
2018-09-17T13:42:31.980Z,33.35
2018-09-17T13:45:00.545Z,33.24
2018-09-17T13:47:29.016Z,33.18
2018-09-17T13:49:57.502Z,33.18
2018-09-17T13:52:26.002Z,33.22
2018-09-17T13:54:54.602Z,33.24
2018-09-17T13:57:23.134Z,33.22
2018-09-17T13:59:51.653Z,33.21
2018-09-17T14:02:20.224Z,33.23
2018-09-17T14:04:48.745Z,33.21
2018-09-17T14:07:17.383Z,33.24
2018-09-17T14:09:45.994Z,33.27
2018-09-17T14:12:14.514Z,33.28
2018-09-17T14:14:43.075Z,33.29
2018-09-17T14:17:11.759Z,33.34
2018-09-17T14:19:40.455Z,33.36
2018-09-17T14:22:09.036Z,33.32
2018-09-17T14:24:37.620Z,33.25
2018-09-17T14:27:06.175Z,33.12
2018-09-17T14:29:34.756Z,33.01
2018-09-17T14:32:08.342Z,32.96
2018-09-17T14:34:36.904Z,32.93
2018-09-17T14:37:05.491Z,32.95
2018-09-17T14:39:34.076Z,32.87
2018-09-17T14:42:02.715Z,32.79
2018-09-17T14:44:31.303Z,32.68
2018-09-17T14:46:59.821Z,32.56
2018-09-17T14:49:28.548Z,32.51
2018-09-17T14:51:57.146Z,32.51
2018-09-17T14:54:25.744Z,32.59
2018-09-17T14:56:54.168Z,32.61
2018-09-17T14:59:22.651Z,32.54
2018-09-17T15:01:51.183Z,32.51
2018-09-17T15:04:19.705Z,32.47
2018-09-17T15:06:48.454Z,32.44
2018-09-17T15:09:16.989Z,32.36
2018-09-17T15:11:45.616Z,32.31
2018-09-17T15:14:14.403Z,31.76
2018-09-17T15:16:42.988Z,32.18
2018-09-17T15:19:11.547Z,32.11
2018-09-17T15:21:40.113Z,32.02
2018-09-17T15:24:08.797Z,31.98
2018-09-17T15:26:37.224Z,31.92
2018-09-17T15:29:05.821Z,31.91
2018-09-17T15:31:34.321Z,31.88
2018-09-17T15:34:02.951Z,31.82
2018-09-17T15:36:31.479Z,31.77
2018-09-17T15:39:00.072Z,31.74
2018-09-17T15:41:28.787Z,31.69
2018-09-17T15:43:57.260Z,31.67
2018-09-17T15:46:25.775Z,31.64
2018-09-17T15:48:54.327Z,31.61
2018-09-17T15:51:22.900Z,31.57
2018-09-17T15:53:51.389Z,31.54
2018-09-17T15:56:20.091Z,31.52
2018-09-17T15:58:48.530Z,31.49
2018-09-17T16:01:17.210Z,31.44
2018-09-17T16:03:45.830Z,31.40
2018-09-17T16:06:14.409Z,31.36
2018-09-17T16:08:43.008Z,31.31
2018-09-17T16:11:11.438Z,31.25
2018-09-17T16:13:39.988Z,31.16
2018-09-17T16:16:08.527Z,31.11
2018-09-17T16:18:37.059Z,30.99
2018-09-17T16:21:05.587Z,30.93
2018-09-17T16:23:34.117Z,30.86
2018-09-17T16:26:02.554Z,30.81
2018-09-17T16:28:31.122Z,30.77
2018-09-17T16:30:59.643Z,30.71
2018-09-17T16:33:28.135Z,30.65
2018-09-17T16:35:56.724Z,30.58
2018-09-17T16:38:25.179Z,30.51
2018-09-17T16:40:53.734Z,30.43
2018-09-17T16:43:22.151Z,30.38
2018-09-17T16:45:51.025Z,30.31
2018-09-17T16:48:19.515Z,30.23
2018-09-17T16:50:48.078Z,30.13
2018-09-17T16:53:16.609Z,30.09
2018-09-17T16:55:45.132Z,30.01
2018-09-17T16:58:13.659Z,29.92
2018-09-17T17:00:42.233Z,29.82
2018-09-17T17:03:10.841Z,29.70
2018-09-17T17:05:39.702Z,29.54
2018-09-17T17:08:08.284Z,29.40
2018-09-17T17:10:36.883Z,29.29
2018-09-17T17:13:05.380Z,29.17
2018-09-17T17:15:34.046Z,29.03
2018-09-17T17:18:02.883Z,28.90
2018-09-17T17:20:31.468Z,28.75
2018-09-17T17:23:00.042Z,28.57
2018-09-17T17:25:28.894Z,28.43
2018-09-17T17:27:57.539Z,28.30
2018-09-17T17:30:25.995Z,28.15
2018-09-17T17:32:54.558Z,28.04
2018-09-17T17:35:23.104Z,27.91
2018-09-17T17:37:51.562Z,27.78
2018-09-17T17:40:20.325Z,27.64
2018-09-17T17:42:48.849Z,27.51
2018-09-17T17:45:17.396Z,27.39
2018-09-17T17:47:46.145Z,27.27
2018-09-17T17:50:14.669Z,26.60
2018-09-17T17:52:43.439Z,27.06
2018-09-17T17:55:11.980Z,26.94
2018-09-17T17:57:40.533Z,26.83
2018-09-17T18:00:10.692Z,26.72
2018-09-17T18:02:39.210Z,26.59
2018-09-17T18:05:07.987Z,26.46
2018-09-17T18:07:36.923Z,26.34
2018-09-17T18:10:05.801Z,26.26
2018-09-17T18:12:34.454Z,26.15
2018-09-17T18:15:03.011Z,26.05
2018-09-17T18:17:32.410Z,25.94
2018-09-17T18:20:01.024Z,25.85
2018-09-17T18:22:29.498Z,25.76
2018-09-17T18:24:57.986Z,25.67
2018-09-17T18:27:26.552Z,25.60
2018-09-17T18:29:55.056Z,25.50
2018-09-17T18:32:23.666Z,25.41
2018-09-17T18:34:52.254Z,25.32
2018-09-17T18:37:20.738Z,25.25
2018-09-17T18:39:49.368Z,25.18
2018-09-17T18:42:18.015Z,25.10
2018-09-17T18:44:46.824Z,25.05
2018-09-17T18:47:15.413Z,25.00
2018-09-17T18:49:43.998Z,24.93
2018-09-17T18:52:12.447Z,24.86
2018-09-17T18:54:41.055Z,24.04
2018-09-17T18:57:09.584Z,24.74
2018-09-17T18:59:41.604Z,24.68
2018-09-17T19:02:10.329Z,24.62
2018-09-17T19:04:38.819Z,24.54
2018-09-17T19:07:07.346Z,24.48
2018-09-17T19:09:41.155Z,24.41
2018-09-17T19:12:09.976Z,24.35
2018-09-17T19:14:43.594Z,24.29
2018-09-17T19:17:17.948Z,24.19
2018-09-17T19:19:46.466Z,24.12
2018-09-17T19:22:20.458Z,24.05
2018-09-17T19:24:48.824Z,23.98
2018-09-17T19:27:17.389Z,23.92
2018-09-17T19:29:45.920Z,23.86
2018-09-17T19:32:14.461Z,23.80
2018-09-17T19:34:42.882Z,23.71
2018-09-17T19:37:16.731Z,23.67
2018-09-17T19:39:50.423Z,23.60
2018-09-17T19:42:18.918Z,23.53
2018-09-17T19:44:52.616Z,23.47
2018-09-17T19:47:21.092Z,23.41
2018-09-17T19:49:49.581Z,23.35
2018-09-17T19:52:18.313Z,23.29
2018-09-17T19:54:47.274Z,23.25
2018-09-17T19:57:20.930Z,23.20
2018-09-17T19:59:52.391Z,23.12
2018-09-17T20:02:21.334Z,23.08
2018-09-17T20:04:55.128Z,23.01
2018-09-17T20:07:23.697Z,22.97
2018-09-17T20:09:52.216Z,22.92
2018-09-17T20:12:20.819Z,22.79
2018-09-17T20:14:49.286Z,22.85
2018-09-17T20:17:17.848Z,22.81
2018-09-17T20:19:46.565Z,22.78
2018-09-17T20:22:15.057Z,22.74
2018-09-17T20:24:43.884Z,22.70
2018-09-17T20:27:12.433Z,22.67
2018-09-17T20:29:41.009Z,22.61
2018-09-17T20:32:09.558Z,22.59
2018-09-17T20:34:38.064Z,22.55
2018-09-17T20:37:06.610Z,22.54
2018-09-17T20:39:35.084Z,22.51
2018-09-17T20:42:03.551Z,22.47
2018-09-17T20:44:32.171Z,22.44
2018-09-17T20:47:00.691Z,22.42
2018-09-17T20:49:29.263Z,22.39
2018-09-17T20:51:57.743Z,22.34
2018-09-17T20:54:26.201Z,22.32
2018-09-17T20:56:54.759Z,22.27
2018-09-17T20:59:23.318Z,22.23
2018-09-17T21:01:51.857Z,22.19
2018-09-17T21:04:20.407Z,22.16
2018-09-17T21:06:48.962Z,22.13
2018-09-17T21:09:17.522Z,22.09
2018-09-17T21:11:46.000Z,22.02
2018-09-17T21:14:14.545Z,21.97
2018-09-17T21:16:45.007Z,21.94
2018-09-17T21:19:13.726Z,21.92
2018-09-17T21:21:42.179Z,21.89
2018-09-17T21:24:10.832Z,21.86
2018-09-17T21:26:39.287Z,21.84
2018-09-17T21:29:07.828Z,21.81
2018-09-17T21:31:36.283Z,21.79
2018-09-17T21:34:04.756Z,21.76
2018-09-17T21:36:33.493Z,21.72
2018-09-17T21:39:01.977Z,21.69
2018-09-17T21:41:30.443Z,21.64
2018-09-17T21:43:58.954Z,21.60
2018-09-17T21:46:27.430Z,21.56
2018-09-17T21:48:55.896Z,21.59
2018-09-17T21:51:24.343Z,21.60
2018-09-17T21:53:52.773Z,21.63
2018-09-17T21:56:21.200Z,21.73
2018-09-17T21:58:49.734Z,21.84
2018-09-17T22:01:20.555Z,22.04
2018-09-17T22:03:50.214Z,22.22
2018-09-17T22:06:18.723Z,22.45
2018-09-17T22:08:47.260Z,22.68
2018-09-17T22:11:15.790Z,22.86
2018-09-17T22:13:44.294Z,23.05
2018-09-17T22:16:12.686Z,23.22
2018-09-17T22:18:41.169Z,23.38
2018-09-17T22:21:09.574Z,23.52
2018-09-17T22:23:38.027Z,23.66
2018-09-17T22:26:06.444Z,23.75
2018-09-17T22:28:41.406Z,23.84
2018-09-17T22:31:11.231Z,23.89
2018-09-17T22:33:39.682Z,23.95
2018-09-17T22:36:08.157Z,23.98
2018-09-17T22:38:42.212Z,24.00
2018-09-17T22:43:45.734Z,24.09
2018-09-17T22:46:14.178Z,24.10
2018-09-17T22:48:42.688Z,24.13
2018-09-17T22:51:11.154Z,24.14
2018-09-17T22:53:39.626Z,24.13
2018-09-17T22:56:08.284Z,24.15
2018-09-17T22:58:36.719Z,24.18
2018-09-17T23:01:05.203Z,24.14
2018-09-17T23:03:33.718Z,24.17
2018-09-17T23:06:02.254Z,24.15
2018-09-17T23:08:30.794Z,24.22
2018-09-17T23:10:59.268Z,24.21
2018-09-17T23:13:27.808Z,24.26
2018-09-17T23:15:56.345Z,24.25
2018-09-17T23:18:24.867Z,24.29
2018-09-17T23:20:53.426Z,24.33
2018-09-17T23:23:21.870Z,24.35
2018-09-17T23:25:50.361Z,24.38
2018-09-17T23:28:18.825Z,24.35
2018-09-17T23:30:47.295Z,24.38
2018-09-17T23:33:15.751Z,24.45
2018-09-17T23:35:44.256Z,24.46
2018-09-17T23:38:12.762Z,24.49
2018-09-17T23:40:41.405Z,24.54
2018-09-17T23:43:09.904Z,24.51
2018-09-17T23:45:38.520Z,24.54
2018-09-17T23:48:07.004Z,24.50
2018-09-17T23:50:35.520Z,24.47
2018-09-17T23:53:03.997Z,24.51
2018-09-17T23:55:32.552Z,24.54
2018-09-17T23:58:01.046Z,24.53
